In Rescue
 
Open Full Screen Window  High Contrast Mode
January 28, 2020 11:57 PM CST
Present Weather: Mist
Weather Information
Wind Direction
  ---
Wind Speed
  00 kt (0 mph)
Wind Gust
  00 kt (0 mph)
Altimeter
30.14 in
Visibility
2 SM
Temperature
-08° C
18° F
Dewpoint
-09° C
16° F
Humidity
93%
1hr Rain Fall
00.00 in.
24hr Rain Fall
00.00 in.
Sky Condition
Overcast @ 300 ft
LIFR

METAR KCNB 290557Z AUTO 00000KT 2SM BR OVC003 M08/M09 A3014 RMK AO2 T10811091 11081 21088 410461091

FAA Disclaimer: The data displayed is for advisory purposes only and is not to be used for flight planning or operations.